Time;durP1;ratioP1;P1;durP2;ratioP2;P2;SDS_P1;SDS_P2;PMS_P1;PMS_P2;Temp;Humidity;BMP_temperature;BMP_pressure;BME280_temperature;BME280_humidity;BME280_pressure;Samples;Min_cycle;Max_cycle;Signal;HPM_P1;HPM_P2
2021/01/07 00:00:42;;;;;;;8.13;4.70;;;3.40;99.90;;;;;;5060925;28;20078;-77
2021/01/07 00:03:07;;;;;;;7.63;4.28;;;3.30;99.90;;;;;;5060280;28;20155;-77
2021/01/07 00:05:34;;;;;;;7.10;4.43;;;3.40;99.90;;;;;;5061386;28;20063;-78
2021/01/07 00:07:59;;;;;;;7.22;4.22;;;3.40;99.90;;;;;;5063041;28;20105;-77
2021/01/07 00:10:25;;;;;;;6.25;4.00;;;3.40;99.90;;;;;;5066714;28;20062;-78
2021/01/07 00:12:50;;;;;;;6.82;4.40;;;3.50;99.90;;;;;;5065565;28;20036;-77
2021/01/07 00:15:16;;;;;;;9.93;4.40;;;3.40;99.90;;;;;;5060904;28;20020;-77
2021/01/07 00:17:41;;;;;;;6.15;4.28;;;3.40;99.90;;;;;;5061205;28;20368;-78
2021/01/07 00:20:09;;;;;;;5.65;4.00;;;3.40;99.90;;;;;;5064059;28;20039;-77
2021/01/07 00:22:34;;;;;;;6.03;4.10;;;3.50;99.90;;;;;;5066430;28;20021;-78
2021/01/07 00:25:00;;;;;;;8.60;4.00;;;3.50;99.90;;;;;;5061256;28;20032;-77
2021/01/07 00:27:25;;;;;;;6.25;4.28;;;3.40;99.90;;;;;;5067518;28;20467;-77
2021/01/07 00:29:51;;;;;;;5.38;3.40;;;3.50;99.90;;;;;;5057429;28;20116;-78
2021/01/07 00:32:16;;;;;;;6.30;4.25;;;3.40;99.90;;;;;;5068492;28;20376;-78
2021/01/07 00:34:42;;;;;;;7.95;3.70;;;3.40;99.90;;;;;;5063526;28;20063;-78
2021/01/07 00:37:07;;;;;;;6.03;3.95;;;3.50;99.90;;;;;;5061143;28;20029;-77
2021/01/07 00:39:33;;;;;;;6.00;4.25;;;3.50;99.90;;;;;;5058924;28;20104;-78
2021/01/07 00:41:59;;;;;;;5.90;3.80;;;3.50;99.90;;;;;;5060302;28;20030;-78
2021/01/07 00:44:26;;;;;;;5.55;3.72;;;3.40;99.90;;;;;;5067189;28;20139;-78
2021/01/07 00:46:52;;;;;;;5.40;3.67;;;3.50;99.90;;;;;;5061423;28;20032;-78
2021/01/07 00:49:18;;;;;;;6.40;4.18;;;3.50;99.90;;;;;;5064202;28;20029;-77
2021/01/07 00:51:44;;;;;;;5.05;3.80;;;3.40;99.90;;;;;;5059140;28;20020;-77
2021/01/07 00:54:10;;;;;;;5.57;3.60;;;3.50;99.90;;;;;;5056778;28;20127;-78
2021/01/07 00:56:39;;;;;;;7.40;3.65;;;3.40;99.90;;;;;;5060791;28;20497;-78
2021/01/07 00:59:05;;;;;;;5.47;3.50;;;3.40;99.90;;;;;;5063127;28;20048;-77
2021/01/07 01:01:32;;;;;;;5.40;3.33;;;3.30;99.90;;;;;;5064240;28;20043;-78
2021/01/07 01:03:58;;;;;;;4.80;3.47;;;3.30;99.90;;;;;;5059005;28;20067;-77
2021/01/07 01:06:31;;;;;;;5.82;3.58;;;3.30;99.90;;;;;;5070468;28;20052;-78
2021/01/07 01:08:56;;;;;;;5.10;3.40;;;3.20;99.90;;;;;;5070206;28;20027;-78
2021/01/07 01:11:22;;;;;;;5.70;3.55;;;3.30;99.90;;;;;;5067800;28;20470;-78
2021/01/07 01:13:47;;;;;;;5.03;3.40;;;3.30;99.90;;;;;;5058605;28;20025;-77
2021/01/07 01:16:13;;;;;;;4.05;3.10;;;3.30;99.90;;;;;;5056956;28;20106;-77
2021/01/07 01:18:38;;;;;;;4.65;3.45;;;3.20;99.90;;;;;;5063137;28;20542;-77
2021/01/07 01:21:04;;;;;;;3.92;3.15;;;3.20;99.90;;;;;;5054896;28;20024;-77
2021/01/07 01:23:29;;;;;;;5.40;3.78;;;3.20;99.90;;;;;;5059614;28;20025;-77
2021/01/07 01:25:55;;;;;;;4.50;3.30;;;3.20;99.90;;;;;;5064221;28;20029;-77
2021/01/07 01:28:20;;;;;;;5.20;3.50;;;3.30;99.90;;;;;;5063652;28;20032;-77
2021/01/07 01:30:46;;;;;;;8.32;3.45;;;3.20;99.90;;;;;;5058415;28;20049;-77
2021/01/07 01:33:11;;;;;;;5.38;3.45;;;3.20;99.90;;;;;;5051994;28;20424;-77
2021/01/07 01:35:37;;;;;;;4.38;3.17;;;3.30;99.90;;;;;;5064346;28;20052;-77
2021/01/07 01:38:02;;;;;;;4.63;3.22;;;3.30;99.90;;;;;;5061752;28;20029;-77
2021/01/07 01:40:28;;;;;;;4.65;3.45;;;3.20;99.90;;;;;;5064323;28;20591;-77
2021/01/07 01:42:53;;;;;;;4.15;3.05;;;3.20;99.90;;;;;;5063913;28;20029;-77
2021/01/07 01:45:19;;;;;;;4.75;3.47;;;3.20;99.90;;;;;;5069240;28;20131;-77
2021/01/07 01:47:44;;;;;;;3.95;2.80;;;3.30;99.90;;;;;;5064164;28;20028;-77
2021/01/07 01:50:10;;;;;;;4.25;3.28;;;3.20;99.90;;;;;;5066752;28;20522;-77
2021/01/07 01:52:37;;;;;;;4.55;3.55;;;3.10;99.90;;;;;;5058917;28;20059;-77
2021/01/07 01:55:03;;;;;;;5.60;3.28;;;3.10;99.90;;;;;;5055936;28;20029;-77
2021/01/07 01:57:31;;;;;;;5.80;3.35;;;3.20;99.90;;;;;;5051345;28;20033;-76
2021/01/07 01:59:57;;;;;;;5.15;3.50;;;3.10;99.90;;;;;;5063011;28;20025;-76
2021/01/07 02:02:22;;;;;;;4.32;2.90;;;3.20;99.90;;;;;;5053043;28;20044;-77
2021/01/07 02:04:48;;;;;;;4.18;3.20;;;3.20;99.90;;;;;;5067154;28;20025;-76
2021/01/07 02:07:19;;;;;;;5.13;3.08;;;3.20;99.90;;;;;;5057899;28;20035;-76
2021/01/07 02:09:46;;;;;;;7.03;3.47;;;3.20;99.90;;;;;;5066962;28;20024;-77
2021/01/07 02:12:12;;;;;;;3.88;2.95;;;3.00;99.90;;;;;;5063066;28;20038;-77
2021/01/07 02:14:45;;;;;;;4.18;3.00;;;3.00;99.90;;;;;;5050135;28;20036;-76
2021/01/07 02:17:13;;;;;;;3.65;2.78;;;3.00;99.90;;;;;;5068410;28;20024;-76
2021/01/07 02:19:39;;;;;;;4.47;3.00;;;2.90;99.90;;;;;;5068672;28;20032;-77
2021/01/07 02:22:05;;;;;;;5.15;3.20;;;3.00;99.90;;;;;;5056666;28;20016;-77
2021/01/07 02:24:31;;;;;;;4.78;3.15;;;3.00;99.90;;;;;;5064923;28;20058;-77
2021/01/07 02:27:07;;;;;;;4.85;3.40;;;3.00;99.90;;;;;;5068532;28;20033;-77
2021/01/07 02:29:33;;;;;;;10.57;3.50;;;3.10;99.90;;;;;;5060322;28;20072;-77
2021/01/07 02:31:59;;;;;;;4.35;3.00;;;3.10;99.90;;;;;;5055206;28;20080;-77
2021/01/07 02:34:25;;;;;;;5.22;3.58;;;3.10;99.90;;;;;;5061822;28;20467;-77
2021/01/07 02:36:50;;;;;;;4.10;3.13;;;3.10;99.90;;;;;;5068151;28;20024;-77
2021/01/07 02:39:16;;;;;;;4.75;3.30;;;3.20;99.90;;;;;;5068664;28;20035;-77
2021/01/07 02:41:49;;;;;;;4.25;2.97;;;3.20;99.90;;;;;;5063767;28;20032;-77
2021/01/07 02:44:14;;;;;;;4.57;3.08;;;3.10;99.90;;;;;;5054109;28;20049;-77
2021/01/07 02:46:40;;;;;;;3.72;2.80;;;3.00;99.90;;;;;;5063441;28;20056;-77
2021/01/07 02:49:05;;;;;;;4.32;3.00;;;3.00;99.90;;;;;;5056954;28;20487;-77
2021/01/07 02:51:31;;;;;;;4.15;2.65;;;3.00;99.90;;;;;;5064529;28;20024;-77
2021/01/07 02:53:56;;;;;;;3.40;2.72;;;3.10;99.90;;;;;;5057254;28;20047;-77
2021/01/07 02:56:21;;;;;;;4.55;3.22;;;3.00;99.90;;;;;;5058185;28;20539;-76
2021/01/07 02:58:47;;;;;;;4.75;3.13;;;3.00;99.90;;;;;;5060955;28;20353;-77
2021/01/07 03:01:12;;;;;;;3.70;2.80;;;3.00;99.90;;;;;;5067802;28;20070;-77
2021/01/07 03:03:38;;;;;;;4.38;2.78;;;3.00;99.90;;;;;;5066245;28;20028;-77
2021/01/07 03:06:03;;;;;;;3.97;2.95;;;3.00;99.90;;;;;;5060431;28;20059;-77
2021/01/07 03:08:29;;;;;;;4.65;3.13;;;3.00;99.90;;;;;;5056658;28;20513;-77
2021/01/07 03:10:54;;;;;;;4.88;3.25;;;3.00;99.90;;;;;;5065161;28;20055;-77
2021/01/07 03:13:20;;;;;;;3.85;2.95;;;3.00;99.90;;;;;;5051547;28;20029;-77
2021/01/07 03:15:45;;;;;;;4.25;2.92;;;2.90;99.90;;;;;;5059509;28;20057;-77
2021/01/07 03:18:11;;;;;;;5.20;3.45;;;2.90;99.90;;;;;;5065829;28;20016;-77
2021/01/07 03:20:36;;;;;;;5.35;3.50;;;2.90;99.90;;;;;;5057425;28;20156;-77
2021/01/07 03:23:01;;;;;;;5.53;3.60;;;2.90;99.90;;;;;;5060317;28;20369;-77
2021/01/07 03:25:27;;;;;;;4.13;3.13;;;3.00;99.90;;;;;;5063298;28;20037;-77
2021/01/07 03:27:52;;;;;;;5.15;3.22;;;3.00;99.90;;;;;;5064606;28;20433;-77
2021/01/07 03:30:19;;;;;;;5.50;3.55;;;3.00;99.90;;;;;;5062232;28;20029;-77
2021/01/07 03:32:44;;;;;;;4.97;3.40;;;3.00;99.90;;;;;;5068097;28;20108;-77
2021/01/07 03:35:10;;;;;;;4.20;2.97;;;3.00;99.90;;;;;;5054156;28;20453;-77
2021/01/07 03:37:36;;;;;;;5.85;3.75;;;3.00;99.90;;;;;;5057111;28;20590;-77
2021/01/07 03:40:01;;;;;;;6.40;3.65;;;3.10;99.90;;;;;;5056572;28;20040;-77
2021/01/07 03:42:27;;;;;;;5.35;3.45;;;2.90;99.90;;;;;;5065600;28;20032;-77
2021/01/07 03:44:52;;;;;;;4.97;3.13;;;3.00;99.90;;;;;;5062177;28;20709;-77
2021/01/07 03:47:18;;;;;;;5.30;3.33;;;2.80;99.90;;;;;;5065664;28;20080;-77
2021/01/07 03:49:44;;;;;;;4.85;3.47;;;2.90;99.90;;;;;;5056607;28;20025;-77
2021/01/07 03:52:10;;;;;;;6.32;4.05;;;2.80;99.90;;;;;;5069324;28;20528;-77
2021/01/07 03:54:35;;;;;;;4.28;2.83;;;3.00;99.90;;;;;;5069270;28;20033;-77
2021/01/07 03:57:01;;;;;;;5.75;3.85;;;3.00;99.90;;;;;;5071628;28;20103;-77
2021/01/07 03:59:26;;;;;;;5.05;3.60;;;2.90;99.90;;;;;;5055465;28;20024;-77
2021/01/07 04:01:52;;;;;;;4.80;3.33;;;3.00;99.90;;;;;;5068917;28;20025;-77
2021/01/07 04:04:17;;;;;;;4.90;3.42;;;2.90;99.90;;;;;;5062744;28;20027;-76
2021/01/07 04:06:43;;;;;;;5.03;3.50;;;3.00;99.90;;;;;;5071313;28;20028;-78
2021/01/07 04:09:08;;;;;;;5.63;3.47;;;3.00;99.90;;;;;;5059609;28;20182;-77
2021/01/07 04:11:33;;;;;;;4.88;3.17;;;3.00;99.90;;;;;;5064971;28;20471;-77
2021/01/07 04:13:59;;;;;;;5.97;3.50;;;3.00;99.90;;;;;;5065311;28;20071;-77
2021/01/07 04:16:25;;;;;;;6.82;4.22;;;3.00;99.90;;;;;;5064889;28;20032;-77
2021/01/07 04:18:50;;;;;;;4.85;3.50;;;3.10;99.90;;;;;;5064387;28;20036;-77
2021/01/07 04:21:20;;;;;;;5.75;3.90;;;3.00;99.90;;;;;;5066260;28;20017;-76
2021/01/07 04:23:45;;;;;;;6.20;3.55;;;3.10;99.90;;;;;;5071063;28;20025;-77
2021/01/07 04:26:15;;;;;;;4.97;3.30;;;3.10;99.90;;;;;;5066507;28;20040;-77
2021/01/07 04:28:41;;;;;;;5.65;4.05;;;3.10;99.90;;;;;;5070496;28;20060;-77
2021/01/07 04:31:06;;;;;;;5.22;3.25;;;3.10;99.90;;;;;;5060108;28;20064;-77
2021/01/07 04:33:31;;;;;;;6.80;3.72;;;3.10;99.90;;;;;;5062889;28;20091;-77
2021/01/07 04:35:57;;;;;;;6.03;3.58;;;3.00;99.90;;;;;;5069275;28;20032;-77
2021/01/07 04:38:22;;;;;;;5.38;3.70;;;3.10;99.90;;;;;;5064905;28;20624;-77
2021/01/07 04:40:48;;;;;;;5.82;3.65;;;3.10;99.90;;;;;;5070254;28;20499;-77
2021/01/07 04:43:14;;;;;;;5.75;3.42;;;3.10;99.90;;;;;;5069721;28;20113;-77
2021/01/07 04:45:39;;;;;;;5.70;4.00;;;3.10;99.90;;;;;;5059513;28;20048;-77
2021/01/07 04:48:07;;;;;;;6.40;4.07;;;3.10;99.90;;;;;;5054859;28;20411;-77
2021/01/07 04:50:33;;;;;;;6.55;4.18;;;3.00;99.90;;;;;;5068997;28;20082;-77
2021/01/07 04:52:58;;;;;;;7.05;4.50;;;3.00;99.90;;;;;;5069779;28;20438;-76
2021/01/07 04:55:24;;;;;;;6.82;4.40;;;3.00;99.90;;;;;;5058288;28;20029;-77
2021/01/07 04:57:49;;;;;;;8.15;4.78;;;2.90;99.90;;;;;;5058199;28;20494;-77
2021/01/07 05:00:15;;;;;;;8.70;4.72;;;3.00;99.90;;;;;;5065554;28;20497;-77
2021/01/07 05:02:42;;;;;;;7.20;4.78;;;3.00;99.90;;;;;;5070824;28;20025;-77
2021/01/07 05:05:08;;;;;;;9.25;5.00;;;3.00;99.90;;;;;;5062932;28;20029;-77
2021/01/07 05:07:38;;;;;;;9.18;4.85;;;3.00;99.90;;;;;;5056692;28;20040;-77
2021/01/07 05:10:08;;;;;;;8.80;5.03;;;2.90;99.90;;;;;;5068595;28;20039;-77
2021/01/07 05:12:52;;;;;;;8.90;4.88;;;3.00;99.90;;;;;;5057137;28;20119;-76
2021/01/07 05:15:17;;;;;;;12.00;6.18;;;2.90;99.90;;;;;;5067370;28;20047;-78
2021/01/07 05:17:45;;;;;;;9.48;5.20;;;2.80;99.90;;;;;;5064925;28;20028;-77
2021/01/07 05:20:12;;;;;;;10.00;5.53;;;2.90;99.90;;;;;;5063922;28;20685;-77
2021/01/07 05:22:42;;;;;;;8.70;5.53;;;2.80;99.90;;;;;;5050947;28;20033;-77
2021/01/07 05:25:14;;;;;;;9.98;5.35;;;2.80;99.90;;;;;;5066643;28;20041;-77
2021/01/07 05:27:41;;;;;;;9.63;5.03;;;2.90;99.90;;;;;;5057776;28;20033;-77
2021/01/07 05:30:09;;;;;;;9.75;5.10;;;2.90;99.90;;;;;;5059955;28;20040;-77
2021/01/07 05:32:36;;;;;;;11.10;5.88;;;2.80;99.90;;;;;;5058953;28;20528;-77
2021/01/07 05:35:04;;;;;;;9.82;5.70;;;2.80;99.90;;;;;;5066017;28;20029;-77
2021/01/07 05:37:34;;;;;;;10.18;5.43;;;2.80;99.90;;;;;;5058036;28;20058;-77
2021/01/07 05:40:00;;;;;;;10.80;6.07;;;2.80;99.90;;;;;;5068061;28;20025;-77
2021/01/07 05:42:26;;;;;;;10.13;5.82;;;2.80;99.90;;;;;;5055949;28;20522;-77
2021/01/07 05:44:54;;;;;;;10.95;6.25;;;2.80;99.90;;;;;;5062030;28;20021;-77
2021/01/07 05:47:30;;;;;;;10.38;6.13;;;2.80;99.90;;;;;;5057998;28;20036;-78
2021/01/07 05:49:59;;;;;;;11.43;6.00;;;2.80;99.90;;;;;;5061607;28;20043;-77
2021/01/07 05:52:31;;;;;;;9.75;5.78;;;2.90;99.90;;;;;;5054536;28;20060;-76
2021/01/07 05:54:58;;;;;;;10.48;5.75;;;2.90;99.90;;;;;;5062373;28;20431;-75
2021/01/07 05:57:25;;;;;;;10.77;6.10;;;2.90;99.90;;;;;;5059452;28;20095;-78
2021/01/07 05:59:52;;;;;;;13.23;6.28;;;2.90;99.90;;;;;;5064121;28;20021;-78
2021/01/07 06:02:18;;;;;;;10.27;5.88;;;2.90;99.90;;;;;;5058251;28;20052;-77
2021/01/07 06:04:46;;;;;;;11.48;6.22;;;2.80;99.90;;;;;;5068552;28;20098;-77
2021/01/07 06:07:15;;;;;;;9.75;5.53;;;2.80;99.90;;;;;;5068360;28;20040;-77
2021/01/07 06:09:41;;;;;;;11.43;5.60;;;2.80;99.90;;;;;;5065535;28;20033;-75
2021/01/07 06:12:07;;;;;;;8.85;5.25;;;2.90;99.90;;;;;;5062249;28;20029;-77
2021/01/07 06:14:33;;;;;;;13.30;6.35;;;2.70;99.90;;;;;;5071118;28;20033;-75
2021/01/07 06:16:58;;;;;;;9.50;5.22;;;2.80;99.90;;;;;;5056087;28;20032;-76
2021/01/07 06:19:31;;;;;;;10.82;5.82;;;2.80;99.90;;;;;;5062952;28;20020;-77
2021/01/07 06:22:01;;;;;;;11.50;6.07;;;2.80;99.90;;;;;;5066195;28;20055;-77
2021/01/07 06:24:29;;;;;;;10.45;5.22;;;2.90;99.90;;;;;;5056406;28;20074;-76
2021/01/07 06:26:55;;;;;;;10.93;6.50;;;2.70;99.90;;;;;;5057796;28;20030;-76
2021/01/07 06:29:20;;;;;;;11.23;5.80;;;2.80;99.90;;;;;;5051100;28;20497;-76
2021/01/07 06:31:55;;;;;;;11.05;6.47;;;2.90;99.90;;;;;;5059632;28;20048;-77
2021/01/07 06:34:26;;;;;;;11.75;6.13;;;2.90;99.90;;;;;;5065976;28;20556;-76
2021/01/07 06:36:53;;;;;;;12.37;6.20;;;2.90;99.90;;;;;;5059240;28;20048;-76
2021/01/07 06:39:22;;;;;;;11.00;5.90;;;2.90;99.90;;;;;;5064815;28;20111;-76
2021/01/07 06:41:57;;;;;;;9.80;5.80;;;3.00;99.90;;;;;;5055116;28;20021;-76
2021/01/07 06:44:25;;;;;;;11.20;5.70;;;3.00;99.90;;;;;;5053856;28;20036;-77
2021/01/07 06:46:50;;;;;;;9.35;5.45;;;3.00;99.90;;;;;;5054539;28;20031;-78
2021/01/07 06:49:24;;;;;;;8.88;5.28;;;2.90;99.90;;;;;;5057381;28;20028;-77
2021/01/07 06:52:00;;;;;;;9.27;5.93;;;2.80;99.90;;;;;;5061710;28;20029;-77
2021/01/07 06:54:36;;;;;;;10.63;6.20;;;2.80;99.90;;;;;;5057040;28;20606;-76
2021/01/07 06:57:05;;;;;;;10.70;6.20;;;2.80;99.90;;;;;;5039168;28;20024;-76
2021/01/07 06:59:31;;;;;;;11.50;6.00;;;2.90;99.90;;;;;;5065454;28;20044;-77
2021/01/07 07:01:58;;;;;;;9.23;5.40;;;2.90;99.90;;;;;;5067085;28;20052;-77
2021/01/07 07:04:30;;;;;;;9.07;5.97;;;2.90;99.90;;;;;;5066460;28;20099;-77
2021/01/07 07:07:08;;;;;;;9.43;5.47;;;2.90;99.90;;;;;;5057502;28;20021;-77
2021/01/07 07:09:40;;;;;;;8.15;5.18;;;2.90;99.90;;;;;;5063958;28;20032;-76
2021/01/07 07:12:06;;;;;;;9.77;5.47;;;2.90;99.90;;;;;;5062870;28;20032;-81
2021/01/07 07:14:32;;;;;;;9.32;5.47;;;2.90;99.90;;;;;;5054479;28;20380;-77
2021/01/07 07:17:05;;;;;;;10.00;5.88;;;2.90;99.90;;;;;;5052069;28;20075;-82
2021/01/07 07:19:31;;;;;;;9.10;5.45;;;2.90;99.90;;;;;;5059396;28;20487;-82
2021/01/07 07:22:01;;;;;;;10.00;5.75;;;3.00;99.90;;;;;;5066850;28;20050;-80
2021/01/07 07:24:31;;;;;;;9.27;5.90;;;3.00;99.90;;;;;;5067062;28;20028;-80
2021/01/07 07:27:02;;;;;;;9.40;5.83;;;3.00;99.90;;;;;;5062560;28;20449;-79
2021/01/07 07:29:33;;;;;;;12.00;5.85;;;3.00;99.90;;;;;;5066813;28;20279;-80
2021/01/07 07:31:59;;;;;;;10.85;5.80;;;3.00;99.90;;;;;;5070588;28;20098;-76
2021/01/07 07:34:30;;;;;;;9.80;5.82;;;3.00;99.90;;;;;;5063295;28;20505;-74
2021/01/07 07:36:55;;;;;;;11.65;6.70;;;2.90;99.90;;;;;;5064814;28;20076;-76
2021/01/07 07:39:26;;;;;;;9.63;5.80;;;3.10;99.90;;;;;;5066707;28;20032;-75
2021/01/07 07:42:06;;;;;;;8.35;4.75;;;3.00;99.90;;;;;;5067560;28;20108;-75
2021/01/07 07:44:32;;;;;;;9.00;4.93;;;3.10;99.90;;;;;;5072287;28;20687;-76
2021/01/07 07:46:58;;;;;;;9.07;5.32;;;3.00;99.90;;;;;;5060320;28;20051;-77
2021/01/07 07:49:23;;;;;;;9.05;5.18;;;3.10;99.90;;;;;;5062137;28;20020;-75
2021/01/07 07:51:51;;;;;;;8.82;5.65;;;3.10;99.90;;;;;;5061724;28;20032;-75
2021/01/07 07:54:17;;;;;;;9.45;5.55;;;3.10;99.90;;;;;;5056702;28;20052;-74
2021/01/07 07:56:42;;;;;;;9.95;5.68;;;3.10;99.90;;;;;;5062848;28;20476;-79
2021/01/07 07:59:10;;;;;;;12.30;5.97;;;3.10;99.90;;;;;;5072153;28;20387;-78
2021/01/07 08:01:39;;;;;;;9.85;5.47;;;3.10;99.90;;;;;;5065757;28;20436;-77
2021/01/07 08:04:14;;;;;;;8.73;5.10;;;3.10;99.90;;;;;;5067475;28;20542;-75
2021/01/07 08:06:39;;;;;;;9.55;5.50;;;3.00;99.90;;;;;;5061507;28;20021;-76
2021/01/07 08:09:06;;;;;;;10.32;5.95;;;3.00;99.90;;;;;;5059161;28;20078;-84
2021/01/07 08:11:40;;;;;;;11.32;5.93;;;3.00;99.90;;;;;;5062912;28;20078;-82
2021/01/07 08:14:09;;;;;;;9.68;5.55;;;3.00;99.90;;;;;;5060784;28;20025;-78
2021/01/07 08:16:35;;;;;;;10.23;5.25;;;3.10;99.90;;;;;;5064727;28;20067;-76
2021/01/07 08:19:00;;;;;;;9.65;5.47;;;3.00;99.90;;;;;;5066564;28;20020;-80
2021/01/07 08:21:26;;;;;;;9.57;5.75;;;3.00;99.90;;;;;;5061826;28;20533;-77
2021/01/07 08:23:51;;;;;;;10.15;5.93;;;3.00;99.90;;;;;;5055830;28;20024;-81
2021/01/07 08:26:26;;;;;;;10.43;6.10;;;3.00;99.90;;;;;;5054461;28;20029;-79
2021/01/07 08:28:52;;;;;;;8.25;5.40;;;3.00;99.90;;;;;;5052134;28;20099;-77
2021/01/07 08:31:26;;;;;;;9.07;5.38;;;3.00;99.90;;;;;;5060364;28;20538;-75
2021/01/07 08:33:52;;;;;;;10.98;5.82;;;3.00;99.90;;;;;;5059082;28;20028;-77
2021/01/07 08:36:20;;;;;;;10.57;4.90;;;3.00;99.90;;;;;;5061910;28;20025;-77
2021/01/07 08:38:51;;;;;;;10.20;5.47;;;3.00;99.90;;;;;;5067154;28;20056;-80
2021/01/07 08:41:30;;;;;;;10.57;5.07;;;2.90;99.90;;;;;;5065921;28;20085;-78
2021/01/07 08:43:57;;;;;;;9.52;5.22;;;2.90;99.90;;;;;;5055592;28;20119;-78
2021/01/07 08:46:27;;;;;;;7.50;4.65;;;2.90;99.90;;;;;;5060498;28;20074;-78
2021/01/07 08:49:08;;;;;;;15.10;5.60;;;2.90;99.90;;;;;;5054304;28;20060;-79
2021/01/07 08:51:42;;;;;;;8.77;5.57;;;2.90;99.90;;;;;;5059324;28;20032;-78
2021/01/07 08:54:19;;;;;;;9.65;5.80;;;3.00;99.90;;;;;;5053066;28;20116;-78
2021/01/07 08:56:47;;;;;;;9.65;5.10;;;3.00;99.90;;;;;;5057088;28;20041;-78
2021/01/07 08:59:29;;;;;;;8.60;4.93;;;3.00;99.90;;;;;;5051604;28;20108;-79
2021/01/07 09:02:17;;;;;;;11.80;6.15;;;3.00;99.90;;;;;;5054361;28;20025;-78
2021/01/07 09:04:45;;;;;;;10.60;5.75;;;3.00;99.90;;;;;;5062585;28;20387;-78
2021/01/07 09:07:14;;;;;;;8.85;5.32;;;3.10;99.90;;;;;;5054541;28;20123;-78
2021/01/07 09:09:46;;;;;;;9.55;5.30;;;3.20;99.90;;;;;;5058729;28;20032;-78
2021/01/07 09:12:22;;;;;;;9.07;5.07;;;3.20;99.90;;;;;;5058554;28;20392;-78
2021/01/07 09:14:49;;;;;;;10.93;5.15;;;3.10;99.90;;;;;;5058349;28;20112;-78
2021/01/07 09:17:17;;;;;;;8.52;4.95;;;3.20;99.90;;;;;;5057899;28;20067;-78
2021/01/07 09:19:43;;;;;;;9.00;5.18;;;3.20;99.90;;;;;;5068733;28;20036;-78
2021/01/07 09:22:09;;;;;;;7.95;4.75;;;3.20;99.90;;;;;;5057352;28;20032;-78
2021/01/07 09:24:36;;;;;;;8.95;5.43;;;3.20;99.90;;;;;;5059572;28;20033;-78
2021/01/07 09:27:13;;;;;;;9.88;5.45;;;3.20;99.90;;;;;;5051379;28;20037;-78
2021/01/07 09:29:39;;;;;;;9.32;4.95;;;3.20;99.90;;;;;;5054112;28;20044;-79
2021/01/07 09:32:06;;;;;;;7.93;4.63;;;3.30;99.90;;;;;;5060974;28;20056;-78
2021/01/07 09:34:32;;;;;;;8.43;5.22;;;3.30;99.90;;;;;;5056850;28;20043;-78
2021/01/07 09:37:12;;;;;;;8.43;4.47;;;3.20;99.90;;;;;;5049042;28;20028;-78
2021/01/07 09:39:38;;;;;;;9.32;4.80;;;3.20;99.90;;;;;;5055059;28;20076;-77
2021/01/07 09:42:05;;;;;;;8.88;5.32;;;3.20;99.90;;;;;;5069483;28;20024;-78
2021/01/07 09:44:31;;;;;;;9.43;4.55;;;3.20;99.90;;;;;;5060198;28;20395;-79
2021/01/07 09:46:57;;;;;;;7.57;4.55;;;3.10;99.90;;;;;;5058271;28;20497;-78
2021/01/07 09:49:24;;;;;;;9.23;5.10;;;3.20;99.90;;;;;;5065615;28;20060;-78
2021/01/07 09:51:50;;;;;;;7.40;4.72;;;3.10;99.90;;;;;;5052315;28;20070;-78
2021/01/07 09:54:16;;;;;;;9.90;4.50;;;3.20;99.90;;;;;;5054666;28;20036;-77
2021/01/07 09:56:42;;;;;;;8.30;4.63;;;3.30;99.90;;;;;;5054935;28;20025;-77
2021/01/07 09:59:08;;;;;;;7.65;4.30;;;3.30;99.90;;;;;;5062496;28;20024;-78
2021/01/07 10:01:33;;;;;;;8.77;4.88;;;3.40;99.90;;;;;;5053019;28;20487;-77
2021/01/07 10:03:59;;;;;;;8.60;4.80;;;3.30;99.90;;;;;;5058307;28;20024;-78
2021/01/07 10:06:25;;;;;;;9.85;4.47;;;3.30;99.90;;;;;;5053193;28;20029;-78
2021/01/07 10:08:50;;;;;;;7.40;4.22;;;3.40;99.90;;;;;;5051108;28;20414;-78
2021/01/07 10:11:16;;;;;;;7.90;4.25;;;3.30;99.90;;;;;;5062821;28;20029;-77
2021/01/07 10:13:42;;;;;;;9.90;4.47;;;3.30;99.90;;;;;;5057974;28;20633;-77
2021/01/07 10:16:14;;;;;;;6.53;3.97;;;3.40;99.90;;;;;;5054027;28;20025;-76
2021/01/07 10:18:40;;;;;;;6.82;3.97;;;3.30;99.90;;;;;;5054297;28;20031;-77
2021/01/07 10:21:09;;;;;;;7.03;3.95;;;3.30;99.90;;;;;;5059985;28;20025;-77
2021/01/07 10:23:36;;;;;;;7.13;4.18;;;3.30;99.90;;;;;;5050816;28;20513;-77
2021/01/07 10:26:02;;;;;;;9.00;3.67;;;3.40;99.90;;;;;;5061957;28;20020;-77
2021/01/07 10:28:28;;;;;;;9.93;4.57;;;3.40;99.90;;;;;;5059854;28;20079;-77
2021/01/07 10:30:54;;;;;;;9.55;4.80;;;3.30;99.90;;;;;;5054636;28;20048;-88
2021/01/07 10:33:20;;;;;;;6.57;4.25;;;3.20;99.90;;;;;;5059451;28;20107;-86
2021/01/07 10:35:46;;;;;;;9.93;4.82;;;3.30;99.90;;;;;;5061420;28;20032;-85
2021/01/07 10:38:20;;;;;;;11.35;5.18;;;3.40;99.90;;;;;;5049052;28;20527;-81
2021/01/07 10:40:46;;;;;;;7.68;4.47;;;3.50;99.90;;;;;;5054863;28;20052;-81
2021/01/07 10:43:13;;;;;;;6.20;4.00;;;3.50;99.90;;;;;;5060524;28;20053;-80
2021/01/07 10:45:39;;;;;;;11.50;6.70;;;3.40;99.90;;;;;;5068829;28;20419;-82
2021/01/07 10:48:09;;;;;;;11.32;6.72;;;3.50;99.90;;;;;;5055619;28;20082;-83
2021/01/07 10:50:35;;;;;;;8.95;5.78;;;3.40;99.90;;;;;;5054652;28;20037;-82
2021/01/07 10:53:43;;;;;;;11.50;6.65;;;3.40;99.90;;;;;;5052665;28;20100;-82
2021/01/07 10:56:25;;;;;;;6.38;3.33;;;3.40;99.90;;;;;;5064648;28;20119;-82
2021/01/07 10:59:03;;;;;;;5.72;3.72;;;3.40;99.90;;;;;;5056526;28;20025;-82
2021/01/07 11:01:53;;;;;;;8.23;3.95;;;3.50;99.90;;;;;;5057637;28;20147;-79
2021/01/07 11:04:59;;;;;;;9.02;3.97;;;3.50;99.90;;;;;;5048884;28;20021;-80
2021/01/07 11:08:04;;;;;;;9.00;4.30;;;3.60;99.90;;;;;;5060362;28;20024;-80
2021/01/07 11:10:31;;;;;;;7.50;3.53;;;3.50;99.90;;;;;;5058580;28;20502;-80
2021/01/07 11:13:00;;;;;;;5.63;3.70;;;3.60;99.90;;;;;;5062671;28;20049;-81
2021/01/07 11:15:30;;;;;;;6.00;3.65;;;3.60;99.90;;;;;;5062711;28;20085;-80
2021/01/07 11:18:13;;;;;;;5.70;3.67;;;3.50;99.90;;;;;;5061558;28;20086;-81
2021/01/07 11:20:42;;;;;;;6.03;3.63;;;3.50;99.90;;;;;;5061761;28;20566;-81
2021/01/07 11:23:09;;;;;;;7.68;4.07;;;3.50;99.90;;;;;;5053277;28;20081;-80
2021/01/07 11:25:36;;;;;;;7.22;3.78;;;3.50;99.90;;;;;;5059169;28;20037;-81
2021/01/07 11:28:02;;;;;;;8.77;5.60;;;3.40;99.90;;;;;;5062150;28;20036;-80
2021/01/07 11:30:28;;;;;;;9.38;5.38;;;3.40;99.90;;;;;;5062063;28;20033;-80
2021/01/07 11:32:54;;;;;;;11.13;6.45;;;3.40;99.90;;;;;;5062231;28;20090;-80
2021/01/07 11:35:20;;;;;;;12.88;6.82;;;3.30;99.90;;;;;;5060151;28;20493;-80
2021/01/07 11:38:03;;;;;;;19.65;9.55;;;3.40;99.90;;;;;;5061310;28;20064;-80
2021/01/07 11:40:37;;;;;;;18.05;8.77;;;3.50;99.90;;;;;;5060005;28;20029;-80
2021/01/07 11:43:23;;;;;;;7.90;4.85;;;3.50;99.90;;;;;;5059606;28;20130;-81
2021/01/07 11:45:59;;;;;;;5.93;3.55;;;3.50;99.90;;;;;;5063167;28;20032;-80
2021/01/07 11:48:25;;;;;;;6.22;4.10;;;3.50;99.90;;;;;;5063251;28;20028;-81
2021/01/07 11:51:02;;;;;;;7.90;4.30;;;3.40;99.90;;;;;;5058760;28;20054;-81
2021/01/07 11:53:28;;;;;;;4.97;3.50;;;3.50;99.90;;;;;;5057615;28;20059;-80
2021/01/07 11:55:56;;;;;;;4.93;3.42;;;3.50;99.90;;;;;;5045251;28;20029;-80
2021/01/07 11:58:24;;;;;;;11.43;4.90;;;3.50;99.90;;;;;;5052980;28;20017;-80
2021/01/07 12:00:54;;;;;;;13.45;6.43;;;3.50;99.90;;;;;;5057309;28;20119;-80
2021/01/07 12:03:21;;;;;;;9.63;5.25;;;3.30;99.90;;;;;;5062053;28;20043;-80
2021/01/07 12:05:46;;;;;;;6.07;4.00;;;3.30;99.90;;;;;;5055089;28;20042;-80
2021/01/07 12:08:23;;;;;;;13.48;6.18;;;3.20;99.90;;;;;;5058066;28;20032;-81
2021/01/07 12:10:53;;;;;;;15.63;7.10;;;3.20;99.90;;;;;;5059403;28;20029;-81
2021/01/07 12:13:25;;;;;;;16.52;6.55;;;3.20;99.90;;;;;;5064005;28;20070;-85
2021/01/07 12:15:52;;;;;;;19.33;7.55;;;3.30;99.90;;;;;;5060842;28;20044;-81
2021/01/07 12:18:20;;;;;;;13.15;5.65;;;3.30;99.90;;;;;;5064087;28;20033;-81
2021/01/07 12:20:46;;;;;;;83.75;25.42;;;3.30;99.90;;;;;;5046432;28;20679;-80
2021/01/07 12:23:13;;;;;;;50.85;16.35;;;3.30;99.90;;;;;;5067391;28;20054;-81
2021/01/07 12:25:41;;;;;;;10.20;5.03;;;3.40;99.90;;;;;;5064102;28;20040;-81
2021/01/07 12:28:07;;;;;;;18.25;7.88;;;3.30;99.90;;;;;;5066279;28;20435;-81
2021/01/07 12:30:38;;;;;;;24.95;8.75;;;3.30;99.90;;;;;;5064222;28;20037;-81
2021/01/07 12:33:30;;;;;;;19.15;8.18;;;3.30;99.90;;;;;;5067027;28;20486;-80
2021/01/07 12:36:04;;;;;;;9.90;5.43;;;3.30;99.90;;;;;;5064788;28;20036;-81
2021/01/07 12:39:24;;;;;;;13.95;6.70;;;3.40;99.90;;;;;;5064904;28;20653;-81
2021/01/07 12:41:54;;;;;;;11.57;5.57;;;3.40;99.90;;;;;;4965002;28;20027;-80
2021/01/07 12:44:22;;;;;;;11.63;5.25;;;3.40;99.90;;;;;;5047294;28;20033;-81
2021/01/07 12:46:54;;;;;;;9.93;5.35;;;3.40;99.90;;;;;;5065073;28;20036;-81
2021/01/07 12:49:20;;;;;;;8.18;4.93;;;3.40;99.90;;;;;;5066011;28;20028;-81
2021/01/07 12:51:47;;;;;;;8.65;5.07;;;3.40;99.90;;;;;;5064391;28;20036;-80
2021/01/07 12:54:14;;;;;;;8.93;5.63;;;3.30;99.90;;;;;;5065529;28;20036;-81
2021/01/07 12:57:05;;;;;;;11.38;5.13;;;3.30;99.90;;;;;;5065628;28;20025;-79
2021/01/07 12:59:38;;;;;;;7.75;5.18;;;3.30;99.90;;;;;;5065229;28;20021;-80
2021/01/07 13:02:39;;;;;;;8.20;5.18;;;3.30;99.90;;;;;;5065921;28;20029;-80